createdAt,value
2023-02-26T00:01:41.291Z,98321.69
2023-02-26T00:04:09.925Z,98324.06
2023-02-26T00:06:53.112Z,98325.34
2023-02-26T00:09:22.991Z,98331.25
2023-02-26T00:11:50.299Z,98324.56
2023-02-26T00:14:18.206Z,98336.06
2023-02-26T00:16:56.217Z,98332.84
2023-02-26T00:19:23.305Z,98339.25
2023-02-26T00:21:50.821Z,98325.34
2023-02-26T00:24:20.767Z,98333.13
2023-02-26T00:26:47.787Z,98338.50
2023-02-26T00:29:15.043Z,98340.34
2023-02-26T00:31:42.336Z,98333.38
2023-02-26T00:34:13.462Z,98333.38
2023-02-26T00:37:10.749Z,98331.78
2023-02-26T00:40:05.324Z,98329.09
2023-02-26T00:42:33.111Z,98339.03
2023-02-26T00:45:00.198Z,98337.09
2023-02-26T00:47:48.832Z,98333.31
2023-02-26T00:50:22.641Z,98339.25
2023-02-26T00:53:17.844Z,98333.91
2023-02-26T00:55:44.645Z,98328.81
2023-02-26T00:58:13.328Z,98338.66
2023-02-26T01:00:40.090Z,98335.66
2023-02-26T01:03:07.668Z,98340.69
2023-02-26T01:05:34.966Z,98341.53
2023-02-26T01:08:31.614Z,98333.78
2023-02-26T01:10:59.003Z,98336.16
2023-02-26T01:13:26.378Z,98337.97
2023-02-26T01:16:05.271Z,98343.81
2023-02-26T01:18:56.075Z,98335.78
2023-02-26T01:21:37.553Z,98336.44
2023-02-26T01:24:11.840Z,98336.94
2023-02-26T01:26:38.837Z,98333.50
2023-02-26T01:29:06.277Z,98340.59
2023-02-26T01:32:02.041Z,98337.88
2023-02-26T01:34:57.980Z,98338.19
2023-02-26T01:37:39.318Z,98336.91
2023-02-26T01:41:07.605Z,98349.22
2023-02-26T01:43:52.816Z,98343.81
2023-02-26T01:47:11.080Z,98341.16
2023-02-26T01:49:38.847Z,98345.44
2023-02-26T01:52:34.676Z,98339.50
2023-02-26T01:55:01.818Z,98338.69
2023-02-26T01:57:28.712Z,98346.88
2023-02-26T01:59:56.017Z,98339.91
2023-02-26T02:02:25.759Z,98345.25
2023-02-26T02:04:53.570Z,98345.94
2023-02-26T02:07:20.539Z,98344.78
2023-02-26T02:09:47.781Z,98345.34
2023-02-26T02:12:46.322Z,98350.28
2023-02-26T02:15:45.192Z,98351.31
2023-02-26T02:18:42.307Z,98354.25
2023-02-26T02:21:48.120Z,98359.44
2023-02-26T02:24:26.195Z,98349.03
2023-02-26T02:27:15.531Z,98355.38
2023-02-26T02:30:15.725Z,98362.28
2023-02-26T02:33:17.619Z,98360.56
2023-02-26T02:36:04.465Z,98361.06
2023-02-26T02:38:48.847Z,98358.56
2023-02-26T02:42:00.469Z,98355.22
2023-02-26T02:44:31.138Z,98365.41
2023-02-26T02:47:00.384Z,98366.78
2023-02-26T02:49:54.767Z,98359.78
2023-02-26T02:52:44.769Z,98370.63
2023-02-26T02:55:22.287Z,98358.41
2023-02-26T02:58:07.311Z,98370.69
2023-02-26T03:00:40.934Z,98370.69
2023-02-26T03:03:39.285Z,98373.56
2023-02-26T03:06:06.832Z,98371.56
2023-02-26T03:08:42.984Z,98367.03
2023-02-26T03:11:10.271Z,98369.13
2023-02-26T03:13:40.317Z,98372.50
2023-02-26T03:16:38.039Z,98365.72
2023-02-26T03:19:19.119Z,98371.69
2023-02-26T03:22:11.724Z,98376.53
2023-02-26T03:24:50.403Z,98373.31
2023-02-26T03:27:36.783Z,98374.22
2023-02-26T03:30:38.633Z,98382.31
2023-02-26T03:33:23.976Z,98381.81
2023-02-26T03:36:11.886Z,98392.56
2023-02-26T03:39:03.672Z,98397.91
2023-02-26T03:41:43.262Z,98398.97
2023-02-26T03:44:24.374Z,98398.72
2023-02-26T03:47:00.599Z,98408.59
2023-02-26T03:49:50.133Z,98401.34
2023-02-26T03:52:18.290Z,98400.22
2023-02-26T03:55:10.545Z,98409.78
2023-02-26T03:57:38.162Z,98408.66
2023-02-26T04:00:10.149Z,98418.00
2023-02-26T04:02:56.007Z,98418.00
2023-02-26T04:05:32.042Z,98414.28
2023-02-26T04:07:59.449Z,98411.88
2023-02-26T04:10:40.199Z,98408.16
2023-02-26T04:13:07.526Z,98420.63
2023-02-26T04:15:34.653Z,98424.59
2023-02-26T04:18:04.940Z,98437.13
2023-02-26T04:20:31.913Z,98429.44
2023-02-26T04:22:58.823Z,98435.22
2023-02-26T04:25:25.629Z,98431.47
2023-02-26T04:27:53.726Z,98431.28
2023-02-26T04:30:20.712Z,98436.00
2023-02-26T04:32:47.557Z,98435.44
2023-02-26T04:35:14.737Z,98434.22
2023-02-26T04:37:41.510Z,98442.50
2023-02-26T04:40:09.351Z,98444.75
2023-02-26T04:42:36.111Z,98449.44
2023-02-26T04:45:03.861Z,98451.38
2023-02-26T04:47:30.903Z,98456.31
2023-02-26T04:49:57.725Z,98458.53
2023-02-26T04:52:25.018Z,98456.91
2023-02-26T04:54:51.781Z,98454.06
2023-02-26T04:57:19.553Z,98449.78
2023-02-26T04:59:46.362Z,98449.84
2023-02-26T05:02:13.217Z,98455.44
2023-02-26T05:04:40.191Z,98451.88
2023-02-26T05:07:07.222Z,98462.00
2023-02-26T05:09:34.220Z,98460.78
2023-02-26T05:12:01.008Z,98459.00
2023-02-26T05:14:27.830Z,98467.03
2023-02-26T05:16:54.698Z,98470.88
2023-02-26T05:19:22.024Z,98473.69
2023-02-26T05:21:49.274Z,98468.63
2023-02-26T05:24:17.216Z,98466.03
2023-02-26T05:26:44.249Z,98463.22
2023-02-26T05:29:11.123Z,98467.81
2023-02-26T05:31:38.464Z,98479.28
2023-02-26T05:34:05.323Z,98480.56
2023-02-26T05:36:32.452Z,98483.88
2023-02-26T05:38:59.332Z,98487.94
2023-02-26T05:41:26.131Z,98491.97
2023-02-26T05:43:53.775Z,98494.69
2023-02-26T05:46:20.827Z,98493.44
2023-02-26T05:48:47.646Z,98496.84
2023-02-26T05:51:14.422Z,98495.06
2023-02-26T05:53:41.169Z,98498.63
2023-02-26T05:56:08.403Z,98506.56
2023-02-26T05:58:35.410Z,98511.63
2023-02-26T06:01:02.483Z,98507.50
2023-02-26T06:03:29.464Z,98514.94
2023-02-26T06:05:56.308Z,98517.75
2023-02-26T06:08:23.106Z,98514.88
2023-02-26T06:10:52.231Z,98520.44
2023-02-26T06:13:19.150Z,98519.53
2023-02-26T06:15:47.621Z,98525.44
2023-02-26T06:18:14.530Z,98527.78
2023-02-26T06:20:41.433Z,98529.97
2023-02-26T06:23:08.277Z,98535.06
2023-02-26T06:25:35.119Z,98532.25
2023-02-26T06:28:02.201Z,98541.28
2023-02-26T06:30:29.026Z,98547.06
2023-02-26T06:32:55.802Z,98545.75
2023-02-26T06:35:22.816Z,98560.72
2023-02-26T06:37:49.804Z,98571.19
2023-02-26T06:40:17.079Z,98571.41
2023-02-26T06:42:43.926Z,98575.03
2023-02-26T06:45:11.222Z,98582.72
2023-02-26T06:47:38.069Z,98587.69
2023-02-26T06:50:06.762Z,98595.44
2023-02-26T06:52:33.626Z,98595.06
2023-02-26T06:55:00.413Z,98594.06
2023-02-26T06:57:27.435Z,98599.22
2023-02-26T06:59:54.337Z,98598.75
2023-02-26T07:02:23.148Z,98613.63
2023-02-26T07:04:50.289Z,98600.84
2023-02-26T07:07:17.393Z,98605.41
2023-02-26T07:09:45.927Z,98613.84
2023-02-26T07:12:13.323Z,98618.53
2023-02-26T07:14:40.621Z,98621.06
2023-02-26T07:17:07.518Z,98621.66
2023-02-26T07:19:34.518Z,98629.22
2023-02-26T07:22:01.886Z,98637.31
2023-02-26T07:24:28.801Z,98629.44
2023-02-26T07:26:55.562Z,98636.19
2023-02-26T07:29:22.530Z,98645.34
2023-02-26T07:31:49.436Z,98646.97
2023-02-26T07:34:16.403Z,98648.50
2023-02-26T07:36:44.067Z,98653.09
2023-02-26T07:39:11.512Z,98661.09
2023-02-26T07:41:38.428Z,98652.13
2023-02-26T07:44:05.340Z,98654.22
2023-02-26T07:46:32.620Z,98652.13
2023-02-26T07:48:59.526Z,98658.78
2023-02-26T07:51:26.715Z,98663.09
2023-02-26T07:53:53.657Z,98660.66
2023-02-26T07:56:20.563Z,98661.94
2023-02-26T07:58:47.671Z,98657.16
2023-02-26T08:01:14.458Z,98665.19
2023-02-26T08:03:41.429Z,98666.41
2023-02-26T08:06:08.602Z,98669.34
2023-02-26T08:08:36.048Z,98667.56
2023-02-26T08:11:03.408Z,98668.78
2023-02-26T08:13:30.378Z,98660.84
2023-02-26T08:15:57.240Z,98660.81
2023-02-26T08:18:24.231Z,98659.69
2023-02-26T08:20:52.540Z,98658.72
2023-02-26T08:23:39.526Z,98656.94
2023-02-26T08:26:25.392Z,98660.75
2023-02-26T08:29:11.088Z,98661.94
2023-02-26T08:31:56.843Z,98668.03
2023-02-26T08:34:42.095Z,98676.28
2023-02-26T08:37:27.935Z,98675.53
2023-02-26T08:40:15.267Z,98683.25
2023-02-26T08:43:01.001Z,98685.69
2023-02-26T08:45:47.489Z,98687.06
2023-02-26T08:48:33.276Z,98690.88
2023-02-26T08:51:00.229Z,98693.16
2023-02-26T08:53:27.120Z,98689.53
2023-02-26T08:55:54.325Z,98690.78
2023-02-26T08:58:21.333Z,98698.38
2023-02-26T09:00:48.268Z,98696.84
2023-02-26T09:03:15.514Z,98692.38
2023-02-26T09:05:42.836Z,98701.38
2023-02-26T09:08:13.159Z,98702.19
2023-02-26T09:10:41.155Z,98703.03
2023-02-26T09:13:08.938Z,98699.53
2023-02-26T09:15:35.702Z,98709.81
2023-02-26T09:18:02.572Z,98712.56
2023-02-26T09:20:29.641Z,98714.44
2023-02-26T09:22:56.595Z,98715.78
2023-02-26T09:25:23.892Z,98717.25
2023-02-26T09:27:51.119Z,98725.00
2023-02-26T09:30:18.462Z,98725.38
2023-02-26T09:32:45.579Z,98726.03
2023-02-26T09:35:13.396Z,98732.03
2023-02-26T09:37:40.329Z,98731.53
2023-02-26T09:40:12.898Z,98731.88
2023-02-26T09:43:15.548Z,98736.75
2023-02-26T09:45:46.952Z,98737.63
2023-02-26T09:48:21.947Z,98743.59
2023-02-26T09:50:53.444Z,98735.91
2023-02-26T09:53:22.784Z,98744.84
2023-02-26T09:55:53.053Z,98745.97
2023-02-26T09:58:35.523Z,98744.84
2023-02-26T10:01:20.840Z,98741.69
2023-02-26T10:04:25.105Z,98740.50
2023-02-26T10:07:22.787Z,98747.25
2023-02-26T10:10:17.439Z,98744.38
2023-02-26T10:12:47.899Z,98749.59
2023-02-26T10:15:25.407Z,98749.47
2023-02-26T10:18:00.904Z,98746.28
2023-02-26T10:20:39.109Z,98738.72
2023-02-26T10:23:15.051Z,98750.56
2023-02-26T10:25:49.424Z,98753.56
2023-02-26T10:28:38.455Z,98750.31
2023-02-26T10:31:38.733Z,98754.63
2023-02-26T10:34:37.118Z,98750.59
2023-02-26T10:37:09.928Z,98758.69
2023-02-26T10:40:09.117Z,98757.97
2023-02-26T10:43:04.558Z,98760.13
2023-02-26T10:46:01.407Z,98770.19
2023-02-26T10:48:57.377Z,98763.97
2023-02-26T10:51:40.064Z,98767.75
2023-02-26T10:54:21.695Z,98764.63
2023-02-26T10:56:48.554Z,98766.00
2023-02-26T10:59:16.767Z,98759.00
2023-02-26T11:01:44.073Z,98765.13
2023-02-26T11:04:19.901Z,98759.66
2023-02-26T11:07:00.700Z,98766.88
2023-02-26T11:09:47.585Z,98760.00
2023-02-26T11:12:16.893Z,98768.63
2023-02-26T11:14:46.978Z,98764.56
2023-02-26T11:17:28.069Z,98774.97
2023-02-26T11:20:24.611Z,98774.72
2023-02-26T11:22:58.165Z,98778.59
2023-02-26T11:25:31.505Z,98780.31
2023-02-26T11:28:34.480Z,98775.72
2023-02-26T11:31:07.523Z,98779.38
2023-02-26T11:33:43.836Z,98776.00
2023-02-26T11:36:17.755Z,98781.97
2023-02-26T11:38:54.985Z,98783.34
2023-02-26T11:41:25.013Z,98778.28
2023-02-26T11:44:22.262Z,98773.09
2023-02-26T11:46:57.332Z,98774.25
2023-02-26T11:49:28.834Z,98773.84
2023-02-26T11:52:28.812Z,98777.16
2023-02-26T11:55:18.472Z,98776.16
2023-02-26T11:57:45.480Z,98774.53
2023-02-26T12:00:24.964Z,98776.22
2023-02-26T12:03:00.092Z,98767.31
2023-02-26T12:05:27.500Z,98774.09
2023-02-26T12:07:54.466Z,98776.31
2023-02-26T12:10:50.259Z,98776.69
2023-02-26T12:14:14.526Z,98772.41
2023-02-26T12:17:27.859Z,98778.44
2023-02-26T12:20:42.844Z,98776.63
2023-02-26T12:23:55.767Z,98786.69
2023-02-26T12:26:43.407Z,98778.38
2023-02-26T12:29:51.720Z,98784.63
2023-02-26T12:33:09.486Z,98778.09
2023-02-26T12:36:46.495Z,98780.16
2023-02-26T12:39:46.846Z,98793.00
2023-02-26T12:42:38.485Z,98786.63
2023-02-26T12:45:51.195Z,98794.97
2023-02-26T12:49:02.470Z,98805.50
2023-02-26T12:52:21.239Z,98787.50
2023-02-26T12:54:57.553Z,98794.22
2023-02-26T12:57:57.902Z,98793.63
2023-02-26T13:00:39.413Z,98795.34
2023-02-26T13:03:53.962Z,98801.38
2023-02-26T13:06:48.470Z,98795.59
2023-02-26T13:09:59.207Z,98801.13
2023-02-26T13:13:03.811Z,98791.91
2023-02-26T13:16:25.458Z,98802.75
2023-02-26T13:19:01.110Z,98801.09
2023-02-26T13:21:43.453Z,98792.16
2023-02-26T13:24:35.171Z,98800.94
2023-02-26T13:27:05.109Z,98802.94
2023-02-26T13:29:45.379Z,98801.31
2023-02-26T13:32:21.024Z,98805.06
2023-02-26T13:35:01.574Z,98810.41
2023-02-26T13:37:47.680Z,98806.28
2023-02-26T13:40:14.464Z,98805.59
2023-02-26T13:43:23.555Z,98809.25
2023-02-26T13:46:11.279Z,98800.22
2023-02-26T13:48:48.558Z,98804.31
2023-02-26T13:51:42.684Z,98809.75
2023-02-26T13:54:16.428Z,98804.28
2023-02-26T13:56:47.197Z,98806.66
2023-02-26T13:59:45.273Z,98794.56
2023-02-26T14:02:18.254Z,98799.63
2023-02-26T14:04:57.691Z,98800.19
2023-02-26T14:07:57.481Z,98798.81
2023-02-26T14:10:32.657Z,98801.41
2023-02-26T14:13:18.932Z,98810.06
2023-02-26T14:16:28.139Z,98813.06
2023-02-26T14:19:05.984Z,98812.88
2023-02-26T14:22:09.395Z,98806.69
2023-02-26T14:24:58.143Z,98823.00
2023-02-26T14:27:32.639Z,98826.41
2023-02-26T14:30:30.360Z,98826.16
2023-02-26T14:33:05.563Z,98824.28
2023-02-26T14:35:40.843Z,98830.41
2023-02-26T14:38:20.955Z,98825.53
2023-02-26T14:41:00.279Z,98830.31
2023-02-26T14:43:43.399Z,98833.72
2023-02-26T14:46:11.301Z,98835.34
2023-02-26T14:48:40.107Z,98843.59
2023-02-26T14:51:32.052Z,98839.03
2023-02-26T14:54:35.337Z,98840.75
2023-02-26T14:57:18.777Z,98841.81
2023-02-26T15:00:22.612Z,98847.56
2023-02-26T15:03:59.847Z,98853.03
2023-02-26T15:06:58.708Z,98856.97
2023-02-26T15:10:13.937Z,98854.50
2023-02-26T15:13:33.341Z,98858.38
2023-02-26T15:16:32.109Z,98857.31
2023-02-26T15:19:30.108Z,98860.53
2023-02-26T15:22:12.793Z,98872.88
2023-02-26T15:24:41.031Z,98872.03
2023-02-26T15:27:15.286Z,98870.84
2023-02-26T15:29:42.868Z,98873.53
2023-02-26T15:32:29.476Z,98876.28
2023-02-26T15:35:21.234Z,98869.53
2023-02-26T15:37:57.056Z,98878.75
2023-02-26T15:40:33.528Z,98881.50
2023-02-26T15:43:02.173Z,98878.25
2023-02-26T15:45:41.444Z,98890.09
2023-02-26T15:48:27.147Z,98887.34
2023-02-26T15:51:00.402Z,98886.00
2023-02-26T15:53:38.331Z,98887.91
2023-02-26T15:56:13.339Z,98894.91
2023-02-26T15:58:52.079Z,98894.06
2023-02-26T16:01:26.336Z,98900.72
2023-02-26T16:04:02.329Z,98904.16
2023-02-26T16:06:43.744Z,98908.56
2023-02-26T16:09:39.920Z,98901.56
2023-02-26T16:12:13.641Z,98907.44
2023-02-26T16:14:46.852Z,98908.00
2023-02-26T16:17:33.273Z,98913.59
2023-02-26T16:20:06.436Z,98913.91
2023-02-26T16:22:44.304Z,98916.53
2023-02-26T16:25:35.625Z,98927.69
2023-02-26T16:28:14.404Z,98923.69
2023-02-26T16:30:47.605Z,98927.63
2023-02-26T16:33:18.171Z,98936.06
2023-02-26T16:36:14.366Z,98940.63
2023-02-26T16:38:47.492Z,98947.84
2023-02-26T16:41:21.309Z,98955.56
2023-02-26T16:43:52.656Z,98960.03
2023-02-26T16:46:34.547Z,98972.88
2023-02-26T16:49:15.588Z,98964.84
2023-02-26T16:51:43.550Z,98976.34
2023-02-26T16:54:33.142Z,98972.72
2023-02-26T16:57:13.480Z,98980.25
2023-02-26T16:59:44.060Z,98973.28
2023-02-26T17:02:22.000Z,98993.31
2023-02-26T17:04:54.934Z,98994.38
2023-02-26T17:07:36.216Z,98991.94
2023-02-26T17:10:23.480Z,99003.47
2023-02-26T17:13:01.601Z,98997.78
2023-02-26T17:15:34.547Z,99000.69
2023-02-26T17:18:02.249Z,99003.16
2023-02-26T17:20:31.840Z,99007.69
2023-02-26T17:23:03.108Z,99014.91
2023-02-26T17:25:38.723Z,99015.41
2023-02-26T17:28:07.395Z,99012.25
2023-02-26T17:30:37.588Z,99025.06
2023-02-26T17:33:04.869Z,99027.97
2023-02-26T17:35:32.244Z,99030.06
2023-02-26T17:38:00.467Z,99029.72
2023-02-26T17:40:36.513Z,99042.75
2023-02-26T17:43:06.241Z,99037.41
2023-02-26T17:45:34.705Z,99043.00
2023-02-26T17:48:01.648Z,99043.00
2023-02-26T17:50:52.626Z,99053.97
2023-02-26T17:53:22.199Z,99054.78
2023-02-26T17:55:53.218Z,99060.16
2023-02-26T17:58:34.952Z,99061.47
2023-02-26T18:01:04.022Z,99059.09
2023-02-26T18:03:31.101Z,99056.09
2023-02-26T18:05:58.906Z,99061.59
2023-02-26T18:08:34.417Z,99063.47
2023-02-26T18:11:03.111Z,99058.81
2023-02-26T18:13:31.198Z,99064.75
2023-02-26T18:16:00.956Z,99076.59
2023-02-26T18:18:29.135Z,99076.03
2023-02-26T18:20:56.385Z,99077.91
2023-02-26T18:23:23.354Z,99074.09
2023-02-26T18:25:53.462Z,99082.44
2023-02-26T18:28:25.321Z,99081.47
2023-02-26T18:30:54.071Z,99080.09
2023-02-26T18:33:22.253Z,99078.13
2023-02-26T18:35:56.681Z,99081.28
2023-02-26T18:38:27.461Z,99086.91
2023-02-26T18:40:54.815Z,99081.75
2023-02-26T18:43:22.287Z,99085.28
2023-02-26T18:45:55.119Z,99091.69
2023-02-26T18:48:22.920Z,99087.94
2023-02-26T18:50:50.039Z,99088.75
2023-02-26T18:53:17.552Z,99097.72
2023-02-26T18:55:45.193Z,99095.06
2023-02-26T18:58:12.392Z,99098.31
2023-02-26T19:00:39.210Z,99092.16
2023-02-26T19:03:09.314Z,99092.16
2023-02-26T19:05:37.674Z,99098.31
2023-02-26T19:08:05.885Z,99096.69
2023-02-26T19:10:35.473Z,99095.31
2023-02-26T19:13:03.057Z,99097.41
2023-02-26T19:15:30.751Z,99096.94
2023-02-26T19:17:57.547Z,99099.31
2023-02-26T19:20:27.623Z,99100.84
2023-02-26T19:22:54.568Z,99103.50
2023-02-26T19:25:24.010Z,99101.88
2023-02-26T19:27:53.368Z,99107.00
2023-02-26T19:30:23.277Z,99104.56
2023-02-26T19:32:51.834Z,99103.97
2023-02-26T19:35:19.761Z,99104.66
2023-02-26T19:37:47.316Z,99110.72
2023-02-26T19:40:16.759Z,99114.22
2023-02-26T19:42:44.326Z,99118.75
2023-02-26T19:45:13.414Z,99104.09
2023-02-26T19:47:40.721Z,99123.16
2023-02-26T19:50:09.220Z,99120.03
2023-02-26T19:52:37.307Z,99125.16
2023-02-26T19:55:07.638Z,99132.13
2023-02-26T19:57:34.818Z,99127.13
2023-02-26T20:00:03.141Z,99138.31
2023-02-26T20:02:30.154Z,99144.00
2023-02-26T20:04:57.092Z,99143.16
2023-02-26T20:07:24.222Z,99145.63
2023-02-26T20:09:51.127Z,99148.19
2023-02-26T20:12:18.118Z,99154.56
2023-02-26T20:14:48.217Z,99164.09
2023-02-26T20:17:15.112Z,99162.47
2023-02-26T20:19:42.067Z,99158.06
2023-02-26T20:22:08.891Z,99171.41
2023-02-26T20:24:36.330Z,99173.88
2023-02-26T20:27:03.838Z,99165.63
2023-02-26T20:29:30.697Z,99176.53
2023-02-26T20:31:59.178Z,99166.66
2023-02-26T20:34:26.217Z,99170.59
2023-02-26T20:36:55.484Z,99178.03
2023-02-26T20:39:23.776Z,99179.91
2023-02-26T20:41:50.736Z,99171.19
2023-02-26T20:44:17.894Z,99181.16
2023-02-26T20:46:45.030Z,99174.78
2023-02-26T20:49:14.390Z,99183.97
2023-02-26T20:51:42.266Z,99179.91
2023-02-26T20:54:16.127Z,99183.84
2023-02-26T20:56:43.495Z,99184.53
2023-02-26T20:59:10.565Z,99183.50
2023-02-26T21:01:37.536Z,99180.00
2023-02-26T21:04:09.152Z,99185.13
2023-02-26T21:06:37.406Z,99190.09
2023-02-26T21:09:06.128Z,99184.41
2023-02-26T21:11:36.823Z,99189.25
2023-02-26T21:14:07.325Z,99188.88
2023-02-26T21:16:34.629Z,99194.00
2023-02-26T21:19:02.670Z,99198.41
2023-02-26T21:21:30.670Z,99192.91
2023-02-26T21:23:58.060Z,99192.91
2023-02-26T21:26:27.208Z,99190.50
2023-02-26T21:28:57.181Z,99191.03
2023-02-26T21:31:28.307Z,99198.44
2023-02-26T21:33:55.368Z,99193.69
2023-02-26T21:36:22.803Z,99194.53
2023-02-26T21:38:49.844Z,99202.53
2023-02-26T21:41:16.681Z,99190.13
2023-02-26T21:43:43.682Z,99198.59
2023-02-26T21:46:10.554Z,99200.66
2023-02-26T21:48:37.285Z,99194.16
2023-02-26T21:51:04.498Z,99180.66
2023-02-26T21:53:31.440Z,99191.00
2023-02-26T21:55:58.338Z,99191.22
2023-02-26T21:58:25.902Z,99192.63
2023-02-26T22:00:53.090Z,99199.81
2023-02-26T22:03:20.573Z,99191.31
2023-02-26T22:05:52.342Z,99197.84
2023-02-26T22:08:20.251Z,99199.00
2023-02-26T22:10:47.711Z,99194.72
2023-02-26T22:13:15.184Z,99206.16
2023-02-26T22:15:42.929Z,99208.00
2023-02-26T22:18:09.701Z,99204.06
2023-02-26T22:20:36.966Z,99210.06
2023-02-26T22:23:04.609Z,99216.56
2023-02-26T22:25:34.069Z,99221.78
2023-02-26T22:28:00.894Z,99214.97
2023-02-26T22:30:27.755Z,99207.66
2023-02-26T22:32:57.896Z,99219.81
2023-02-26T22:35:25.409Z,99214.16
2023-02-26T22:37:53.807Z,99214.50
2023-02-26T22:40:20.774Z,99208.00
2023-02-26T22:42:47.886Z,99209.47
2023-02-26T22:45:17.101Z,99209.63
2023-02-26T22:47:45.456Z,99207.06
2023-02-26T22:50:15.020Z,99204.13
2023-02-26T22:52:43.229Z,99197.09
2023-02-26T22:55:11.421Z,99207.78
2023-02-26T22:57:38.890Z,99208.44
2023-02-26T23:00:15.245Z,99202.97
2023-02-26T23:02:42.745Z,99203.25
2023-02-26T23:05:11.803Z,99206.16
2023-02-26T23:07:43.106Z,99216.03
2023-02-26T23:10:14.666Z,99205.09
2023-02-26T23:12:43.658Z,99211.28
2023-02-26T23:15:11.596Z,99209.66
2023-02-26T23:17:39.879Z,99216.63
2023-02-26T23:20:10.359Z,99206.88
2023-02-26T23:22:37.729Z,99208.16
2023-02-26T23:25:05.024Z,99213.41
2023-02-26T23:27:32.386Z,99207.88
2023-02-26T23:29:59.198Z,99205.25
2023-02-26T23:32:26.149Z,99213.88
2023-02-26T23:34:53.202Z,99211.63
2023-02-26T23:37:20.048Z,99215.28
2023-02-26T23:39:48.664Z,99206.75
2023-02-26T23:42:18.588Z,99219.66
2023-02-26T23:44:51.224Z,99209.13
2023-02-26T23:47:18.015Z,99214.69
2023-02-26T23:49:44.735Z,99215.72
2023-02-26T23:52:11.690Z,99214.53
2023-02-26T23:54:40.046Z,99216.47
2023-02-26T23:57:07.081Z,99208.31
2023-02-26T23:59:34.207Z,99211.19
